Rosebud, South Dakota
Current Conditions -  °F | °C
As of 10:52 AM on Monday 24 Nov 2014 (Local Time) from KVTN Reporting Station
Clear Clear  
Wind Chill: 18°   Ceiling: Unl
Heat Index: 30°   Visibility: 10mi
Dew Point: 16°   Wind: 20mph
Humidity: 56%   Direction: 320°NW
Pressure: 29.87"   Gusts: 25mph
Location:  43.23°N, 100.86°W
Report Text: KVTN 241752Z AUTO 32017G22KT 10SM CLR M01/M09 A2987 RMK AO2 SLP140 T10111089 11011 21067 51019
Loading
Personal Weather Stations






























Interactive Weather Map New forecast layout! Learn more

10-Day Weather Forecast

Advertisements
Track Severe Weather on mobile